Currently 56°F in French Valley, California, USA
56°F
61°F / 56°F
calm
0.00"
Tuesday, April 24, 2018 3:18 AM PDT

French Valley, California Weather Summary
Last 36 Hours

Temperature Winds Hourly Humidity Dewpoint
Time Report Norm Report Norm Max Gusts Precip. Rpt. Norm Rpt. Norm Pressure
1,3Tue 03:18 AM  56.1°F  54°F  calm  1 mph  none  0.00"  79%  86%  49°F  49°F  30.06"
Tue 03:00 AM  56.6°F  54°F  calm  1 mph  4 mph  0.00"  78%  85%  50°F  50°F  30.06"
Tue 02:00 AM  56.3°F  55°F  3 mph E  2 mph  4 mph  0.00"  79%  85%  50°F  50°F  30.07"
Tue 01:00 AM  58.6°F  55°F  calm  1 mph  none  0.00"  75%  84%  50°F  51°F  30.08"
2Tue 12:00 AM  60.8°F  56°F  calm  2 mph  1 mph  0.00"  68%  83%  50°F  51°F  30.08"
Mon 11:00 PM  62.5°F  57°F  calm  2 mph  6 mph  0.00"  68%  82%  51°F  52°F  30.09"
Mon 10:00 PM  63.7°F  58°F  4 mph SE  3 mph  5 mph  0.00"  66%  80%  52°F  52°F  30.08"
Mon 09:00 PM  63.7°F  60°F  4 mph S  4 mph  6 mph  0.00"  74%  77%  55°F  52°F  30.06"
Mon 08:00 PM  64.1°F  62°F  5 mph S  5 mph  11 mph  0.00"  74%  71%  55°F  52°F  30.04"
Mon 07:00 PM  70.3°F  65°F  7 mph S  6 mph  15 mph  0.00"  59%  65%  55°F  53°F  30.02"
Mon 06:00 PM  76.4°F  69°F  9 mph SE  8 mph  17 mph  0.00"  45%  57%  52°F  52°F  30.01"
Mon 05:00 PM  80.7°F  71°F  10 mph S  8 mph  19 mph  0.00"  38%  53%  52°F  52°F  30.01"
Mon 04:00 PM  83.4°F  73°F  9 mph S  8 mph  19 mph  0.00"  34%  49%  52°F  52°F  30.00"
Mon 03:00 PM  85.1°F  74°F  7 mph SW  7 mph  16 mph  0.00"  31%  46%  50°F  51°F  30.01"
Mon 02:00 PM  85.6°F  74°F  6 mph S  7 mph  16 mph  0.00"  25%  45%  44°F  50°F  30.02"
Mon 01:00 PM  83.6°F  73°F  5 mph W  6 mph  12 mph  0.00"  26%  46%  44°F  50°F  30.05"
Mon 12:00 PM  81.8°F  71°F  2 mph W  5 mph  9 mph  0.00"  27%  48%  43°F  50°F  30.08"
Mon 11:00 AM  78.0°F  68°F  calm  4 mph  9 mph  0.00"  29%  54%  42°F  50°F  30.10"
Mon 10:00 AM  73.8°F  65°F  4 mph W  3 mph  7 mph  0.00"  39%  63%  46°F  51°F  30.10"
Mon 09:00 AM  68.4°F  60°F  2 mph W  3 mph  4 mph  0.00"  48%  73%  47°F  51°F  30.10"
Mon 08:00 AM  61.9°F  56°F  calm  2 mph  none  0.00"  59%  82%  47°F  51°F  30.10"
Mon 07:00 AM  56.0°F  53°F  calm  1 mph  none  0.00"  72%  87%  47°F  49°F  30.09"
Mon 06:00 AM  54.2°F  52°F  calm  1 mph  none  0.00"  75%  87%  46°F  49°F  30.08"
Mon 05:00 AM  55.0°F  53°F  calm  1 mph  5 mph  0.00"  65%  86%  43°F  49°F  30.06"
Mon 04:00 AM  56.2°F  53°F  calm  1 mph  5 mph  0.00"  64%  86%  44°F  49°F  30.04"
Mon 03:00 AM  57.1°F  54°F  calm  1 mph  5 mph  0.00"  70%  85%  47°F  49°F  30.04"
Mon 02:00 AM  58.1°F  54°F  calm  1 mph  none  0.00"  61%  85%  44°F  50°F  30.04"
Mon 01:00 AM  59.6°F  55°F  calm  1 mph  none  0.00"  57%  84%  44°F  50°F  30.03"
Mon 12:00 AM  61.2°F  56°F  calm  1 mph  none  0.00"  63%  83%  48°F  51°F  30.04"
Sun 11:00 PM  63.1°F  57°F  calm  2 mph  6 mph  0.00"  64%  82%  50°F  51°F  30.04"
Sun 10:00 PM  64.7°F  58°F  4 mph SE  2 mph  7 mph  0.00"  60%  80%  50°F  52°F  30.04"
Sun 09:00 PM  66.9°F  59°F  3 mph E  4 mph  7 mph  0.00"  57%  76%  51°F  52°F  30.02"
Sun 08:00 PM  69.6°F  62°F  4 mph SE  5 mph  10 mph  0.00"  48%  71%  49°F  52°F  30.00"
Sun 07:01 PM  74.5°F  65°F  5 mph S  6 mph  12 mph  0.00"  41%  65%  48°F  52°F  29.98"
Sun 06:00 PM  76.4°F  69°F  8 mph S  7 mph  21 mph  0.00"  37%  57%  47°F  52°F  29.98"
Sun 05:00 PM  78.3°F  71°F  8 mph S  8 mph  21 mph  0.00"  34%  53%  46°F  52°F  29.96"
Sun 04:00 PM  81.4°F  72°F  12 mph S  8 mph  25 mph  0.00"  32%  49%  48°F  51°F  29.95"

  1. Current weather data. No green row appears if the current weather data is also the high or low for the current day.
  2. High temperature for the current day.
  3. Low temperature for the current day.

The French Valley, California weather pages are a service of WeatherCurrents. French Valley is located in southwestern Riverside County, California, north of Temecula, east of Murrieta, and south of Winchester. French Valley is bordered by Lake Skinner.
Copyright ©Tue Apr 24 03:18:58 PDT 2018  WeatherCurrents. All rights reserved. - Submit questions and comments - Privacy Policy

This page automatically refreshes every 10 minutes.